EWG2823 LIMC-EDDS
Flight info
| Callsign | EWG2823 |
|---|---|
| Flight time | 0h 44m |
| Altitude | 24000 |
| Route | PEPAG DCT ABESI N851 UTAVO DCT SOPER N851 ROMIR T125 REUTL REUTL1W |
| Aircraft | A320/M-SDE3FGHIRWY/LB1 |
Departure
| Time | 2026-05-04 19:30 |
|---|---|
| Airport | Milan Malpensa International Airport (LIMC) |
Arrival
| Time | 2026-05-04 20:14 |
|---|---|
| Airport | Stuttgart Airport (EDDS) |
| Time | Latitude | Longitude | Altitude | Speed | Heading |
|---|---|---|---|---|---|
| 2026-05-04 19:05 | 45.62884 | 8.71882 | 736 ft | 0 kts | 79° |
| 2026-05-04 19:20 | 45.62887 | 8.71903 | 736 ft | 5 kts | 79° |
| 2026-05-04 19:20 | 45.62881 | 8.71968 | 735 ft | 7 kts | 139° |
| 2026-05-04 19:21 | 45.62837 | 8.71982 | 735 ft | 6 kts | 171° |
| 2026-05-04 19:21 | 45.62781 | 8.71995 | 735 ft | 11 kts | 170° |
| 2026-05-04 19:21 | 45.62682 | 8.72023 | 737 ft | 17 kts | 169° |
| 2026-05-04 19:21 | 45.62557 | 8.72058 | 737 ft | 19 kts | 169° |
| 2026-05-04 19:22 | 45.62421 | 8.72095 | 737 ft | 21 kts | 169° |
| 2026-05-04 19:22 | 45.62271 | 8.72135 | 737 ft | 23 kts | 169° |
| 2026-05-04 19:22 | 45.62110 | 8.72179 | 736 ft | 22 kts | 169° |
| 2026-05-04 19:22 | 45.61954 | 8.72223 | 737 ft | 24 kts | 169° |
| 2026-05-04 19:23 | 45.61786 | 8.72270 | 736 ft | 25 kts | 169° |
| 2026-05-04 19:23 | 45.61613 | 8.72319 | 737 ft | 25 kts | 169° |
| 2026-05-04 19:23 | 45.61470 | 8.72358 | 737 ft | 19 kts | 169° |
| 2026-05-04 19:23 | 45.61362 | 8.72457 | 737 ft | 20 kts | 134° |
| 2026-05-04 19:24 | 45.61239 | 8.72532 | 737 ft | 20 kts | 169° |
| 2026-05-04 19:24 | 45.61145 | 8.72558 | 737 ft | 19 kts | 169° |
| 2026-05-04 19:24 | 45.61081 | 8.72664 | 738 ft | 15 kts | 90° |
| 2026-05-04 19:24 | 45.61096 | 8.72803 | 740 ft | 14 kts | 79° |
| 2026-05-04 19:25 | 45.61114 | 8.72936 | 739 ft | 15 kts | 79° |
| 2026-05-04 19:25 | 45.61155 | 8.73076 | 737 ft | 17 kts | 41° |
| 2026-05-04 19:25 | 45.61258 | 8.73165 | 737 ft | 18 kts | 34° |
| 2026-05-04 19:25 | 45.61372 | 8.73266 | 737 ft | 19 kts | 12° |
| 2026-05-04 19:26 | 45.61511 | 8.73236 | 737 ft | 21 kts | 346° |
| 2026-05-04 19:26 | 45.61614 | 8.73244 | 736 ft | 13 kts | 65° |
| 2026-05-04 19:26 | 45.61632 | 8.73368 | 737 ft | 13 kts | 81° |
| 2026-05-04 19:26 | 45.61614 | 8.73475 | 735 ft | 11 kts | 123° |
| 2026-05-04 19:27 | 45.61585 | 8.73561 | 737 ft | 9 kts | 102° |
| 2026-05-04 19:27 | 45.61583 | 8.73582 | 737 ft | 0 kts | 95° |
| 2026-05-04 19:27 | 45.61584 | 8.73611 | 737 ft | 11 kts | 85° |
| 2026-05-04 19:28 | 45.61614 | 8.73724 | 736 ft | 12 kts | 30° |
| 2026-05-04 19:28 | 45.61662 | 8.73720 | 737 ft | 0 kts | 347° |
| 2026-05-04 19:29 | 45.61696 | 8.73710 | 736 ft | 26 kts | 349° |
| 2026-05-04 19:29 | 45.62147 | 8.73584 | 737 ft | 101 kts | 349° |
| 2026-05-04 19:29 | 45.63038 | 8.73345 | 734 ft | 157 kts | 349° |
| 2026-05-04 19:30 | 45.64209 | 8.73016 | 1091 ft | 178 kts | 351° |
| 2026-05-04 19:30 | 45.65481 | 8.72848 | 1715 ft | 189 kts | 358° |
| 2026-05-04 19:30 | 45.66835 | 8.72887 | 2331 ft | 199 kts | 1° |
| 2026-05-04 19:30 | 45.68235 | 8.72950 | 2961 ft | 204 kts | 0° |
| 2026-05-04 19:31 | 45.69673 | 8.72981 | 3602 ft | 209 kts | 360° |
| 2026-05-04 19:31 | 45.71135 | 8.72980 | 4270 ft | 212 kts | 359° |
| 2026-05-04 19:31 | 45.72611 | 8.73241 | 4901 ft | 217 kts | 19° |
| 2026-05-04 19:31 | 45.73843 | 8.74393 | 5591 ft | 216 kts | 49° |
| 2026-05-04 19:32 | 45.74642 | 8.76182 | 6335 ft | 212 kts | 63° |
| 2026-05-04 19:32 | 45.75350 | 8.78049 | 6883 ft | 220 kts | 60° |
| 2026-05-04 19:32 | 45.76105 | 8.80100 | 7172 ft | 245 kts | 69° |
| 2026-05-04 19:32 | 45.76546 | 8.82569 | 7577 ft | 268 kts | 87° |
| 2026-05-04 19:33 | 45.76394 | 8.85270 | 8243 ft | 277 kts | 107° |
| 2026-05-04 19:33 | 45.75608 | 8.87794 | 9127 ft | 279 kts | 127° |
| 2026-05-04 19:33 | 45.74297 | 8.89817 | 10051 ft | 278 kts | 145° |
| 2026-05-04 19:33 | 45.72609 | 8.91215 | 10692 ft | 289 kts | 156° |
| 2026-05-04 19:34 | 45.70769 | 8.92658 | 11010 ft | 313 kts | 149° |
| 2026-05-04 19:34 | 45.68980 | 8.94548 | 11634 ft | 325 kts | 141° |
| 2026-05-04 19:34 | 45.67366 | 8.96871 | 12396 ft | 334 kts | 133° |
| 2026-05-04 19:34 | 45.65998 | 8.99591 | 13163 ft | 342 kts | 123° |
| 2026-05-04 19:35 | 45.65030 | 9.02742 | 13897 ft | 352 kts | 109° |
| 2026-05-04 19:35 | 45.64617 | 9.06235 | 14523 ft | 363 kts | 94° |
| 2026-05-04 19:35 | 45.64811 | 9.09858 | 15165 ft | 371 kts | 78° |
| 2026-05-04 19:35 | 45.65773 | 9.13300 | 15820 ft | 378 kts | 59° |
| 2026-05-04 19:36 | 45.67508 | 9.16133 | 16494 ft | 382 kts | 37° |
| 2026-05-04 19:36 | 45.69837 | 9.17938 | 17168 ft | 383 kts | 16° |
| 2026-05-04 19:36 | 45.72456 | 9.18488 | 17841 ft | 382 kts | 355° |
| 2026-05-04 19:36 | 45.75053 | 9.17785 | 18499 ft | 380 kts | 340° |
| 2026-05-04 19:37 | 45.77584 | 9.16646 | 19101 ft | 383 kts | 339° |
| 2026-05-04 19:37 | 45.80131 | 9.15483 | 19686 ft | 386 kts | 339° |
| 2026-05-04 19:37 | 45.82694 | 9.14306 | 20290 ft | 389 kts | 339° |
| 2026-05-04 19:37 | 45.85283 | 9.13118 | 20901 ft | 392 kts | 339° |
| 2026-05-04 19:38 | 45.87894 | 9.11923 | 21449 ft | 395 kts | 339° |
| 2026-05-04 19:38 | 45.90528 | 9.10722 | 22009 ft | 399 kts | 339° |
| 2026-05-04 19:38 | 45.93186 | 9.09509 | 22532 ft | 402 kts | 339° |
| 2026-05-04 19:38 | 45.95829 | 9.08301 | 23008 ft | 406 kts | 339° |
| 2026-05-04 19:39 | 45.98604 | 9.07186 | 23588 ft | 411 kts | 346° |
| 2026-05-04 19:39 | 46.01458 | 9.06630 | 23996 ft | 416 kts | 351° |
| 2026-05-04 19:39 | 46.04347 | 9.06170 | 24101 ft | 422 kts | 351° |
| 2026-05-04 19:39 | 46.07272 | 9.05698 | 24135 ft | 435 kts | 351° |
| 2026-05-04 19:40 | 46.10327 | 9.05195 | 24137 ft | 449 kts | 351° |
| 2026-05-04 19:40 | 46.13473 | 9.04674 | 24137 ft | 462 kts | 351° |
| 2026-05-04 19:40 | 46.16752 | 9.04137 | 24137 ft | 473 kts | 351° |
| 2026-05-04 19:40 | 46.20060 | 9.03641 | 24137 ft | 484 kts | 352° |
| 2026-05-04 19:41 | 46.23394 | 9.03193 | 24181 ft | 491 kts | 352° |
| 2026-05-04 19:41 | 46.26804 | 9.02763 | 24382 ft | 493 kts | 353° |
| 2026-05-04 19:41 | 46.30270 | 9.02337 | 24644 ft | 494 kts | 353° |
| 2026-05-04 19:41 | 46.33706 | 9.01908 | 24900 ft | 496 kts | 352° |
| 2026-05-04 19:42 | 46.37106 | 9.01470 | 25083 ft | 498 kts | 352° |
| 2026-05-04 19:42 | 46.40602 | 9.01004 | 25165 ft | 498 kts | 352° |
| 2026-05-04 19:42 | 46.44051 | 9.00534 | 25255 ft | 498 kts | 352° |
| 2026-05-04 19:42 | 46.47501 | 9.00060 | 25340 ft | 499 kts | 352° |
| 2026-05-04 19:43 | 46.50965 | 8.99584 | 25437 ft | 500 kts | 352° |
| 2026-05-04 19:43 | 46.54382 | 8.99122 | 25538 ft | 500 kts | 352° |
| 2026-05-04 19:43 | 46.57850 | 8.98657 | 25633 ft | 501 kts | 352° |
| 2026-05-04 19:43 | 46.61333 | 8.98189 | 25848 ft | 503 kts | 352° |
| 2026-05-04 19:44 | 46.64825 | 8.97716 | 26056 ft | 505 kts | 352° |
| 2026-05-04 19:44 | 46.68323 | 8.97240 | 26120 ft | 505 kts | 352° |
| 2026-05-04 19:44 | 46.71824 | 8.96766 | 26101 ft | 505 kts | 352° |
| 2026-05-04 19:44 | 46.75329 | 8.96292 | 26107 ft | 506 kts | 352° |
| 2026-05-04 19:45 | 46.78831 | 8.95816 | 26088 ft | 506 kts | 352° |
| 2026-05-04 19:45 | 46.82337 | 8.95340 | 26093 ft | 506 kts | 352° |
| 2026-05-04 19:45 | 46.85846 | 8.94864 | 26086 ft | 506 kts | 352° |
| 2026-05-04 19:45 | 46.89348 | 8.94388 | 26075 ft | 503 kts | 352° |
| 2026-05-04 19:46 | 46.92822 | 8.93914 | 26086 ft | 501 kts | 352° |
| 2026-05-04 19:46 | 46.96296 | 8.93439 | 26081 ft | 501 kts | 352° |
| 2026-05-04 19:46 | 46.99720 | 8.92965 | 26067 ft | 500 kts | 352° |
| 2026-05-04 19:46 | 47.03191 | 8.92486 | 26077 ft | 501 kts | 352° |
| 2026-05-04 19:47 | 47.06663 | 8.92010 | 26077 ft | 501 kts | 352° |
| 2026-05-04 19:47 | 47.10124 | 8.91535 | 26072 ft | 501 kts | 352° |
| 2026-05-04 19:47 | 47.13599 | 8.91057 | 26066 ft | 501 kts | 352° |
| 2026-05-04 19:47 | 47.17070 | 8.90576 | 26059 ft | 501 kts | 352° |
| 2026-05-04 19:48 | 47.20537 | 8.90093 | 26065 ft | 501 kts | 352° |
| 2026-05-04 19:48 | 47.24014 | 8.89610 | 26067 ft | 501 kts | 352° |
| 2026-05-04 19:48 | 47.27489 | 8.89339 | 26071 ft | 504 kts | 360° |
| 2026-05-04 19:48 | 47.30947 | 8.90045 | 26073 ft | 507 kts | 12° |
| 2026-05-04 19:49 | 47.34339 | 8.91657 | 25984 ft | 509 kts | 18° |
| 2026-05-04 19:49 | 47.37673 | 8.93365 | 25860 ft | 508 kts | 18° |
| 2026-05-04 19:49 | 47.41005 | 8.95082 | 25914 ft | 507 kts | 18° |
| 2026-05-04 19:49 | 47.44346 | 8.96807 | 26046 ft | 509 kts | 18° |
| 2026-05-04 19:50 | 47.47690 | 8.98536 | 26069 ft | 509 kts | 18° |
| 2026-05-04 19:50 | 47.50979 | 9.00235 | 26059 ft | 509 kts | 18° |
| 2026-05-04 19:50 | 47.54343 | 9.01974 | 26067 ft | 509 kts | 18° |
| 2026-05-04 19:50 | 47.57679 | 9.03699 | 26066 ft | 509 kts | 17° |
| 2026-05-04 19:51 | 47.61030 | 9.05432 | 26065 ft | 509 kts | 17° |
| 2026-05-04 19:51 | 47.64350 | 9.07150 | 26062 ft | 509 kts | 17° |
| 2026-05-04 19:51 | 47.67688 | 9.08927 | 26063 ft | 509 kts | 21° |
| 2026-05-04 19:51 | 47.70744 | 9.11570 | 26055 ft | 512 kts | 38° |
| 2026-05-04 19:52 | 47.73211 | 9.15386 | 26056 ft | 513 kts | 54° |
| 2026-05-04 19:52 | 47.75133 | 9.19843 | 26058 ft | 514 kts | 58° |
| 2026-05-04 19:52 | 47.77075 | 9.24303 | 26059 ft | 514 kts | 52° |
| 2026-05-04 19:52 | 47.79606 | 9.27911 | 26055 ft | 512 kts | 33° |
| 2026-05-04 19:53 | 47.82796 | 9.30167 | 26059 ft | 506 kts | 13° |
| 2026-05-04 19:53 | 47.86245 | 9.30995 | 26054 ft | 502 kts | 2° |
| 2026-05-04 19:53 | 47.89723 | 9.31346 | 26050 ft | 501 kts | 359° |
| 2026-05-04 19:53 | 47.93254 | 9.31483 | 26044 ft | 500 kts | 358° |
| 2026-05-04 19:54 | 47.96732 | 9.31538 | 26045 ft | 500 kts | 358° |
| 2026-05-04 19:54 | 48.00134 | 9.31618 | 26056 ft | 484 kts | 358° |
| 2026-05-04 19:54 | 48.03419 | 9.31771 | 26053 ft | 460 kts | 359° |
| 2026-05-04 19:54 | 48.06547 | 9.31986 | 26069 ft | 441 kts | 360° |
| 2026-05-04 19:55 | 48.09587 | 9.32238 | 26061 ft | 435 kts | 0° |
| 2026-05-04 19:55 | 48.12601 | 9.32503 | 26057 ft | 433 kts | 0° |
| 2026-05-04 19:55 | 48.15585 | 9.32761 | 25664 ft | 427 kts | 0° |
| 2026-05-04 19:55 | 48.18512 | 9.33052 | 25391 ft | 416 kts | 1° |
| 2026-05-04 19:56 | 48.21357 | 9.33452 | 25143 ft | 406 kts | 3° |
| 2026-05-04 19:56 | 48.24137 | 9.33919 | 24903 ft | 399 kts | 3° |
| 2026-05-04 19:56 | 48.26884 | 9.34411 | 24662 ft | 396 kts | 4° |
| 2026-05-04 19:56 | 48.29611 | 9.34902 | 24421 ft | 391 kts | 3° |
| 2026-05-04 19:57 | 48.32300 | 9.35376 | 23976 ft | 388 kts | 3° |
| 2026-05-04 19:57 | 48.34973 | 9.35820 | 23454 ft | 386 kts | 1° |
| 2026-05-04 19:57 | 48.37637 | 9.35779 | 22941 ft | 378 kts | 350° |
| 2026-05-04 19:57 | 48.40205 | 9.35085 | 22453 ft | 373 kts | 344° |
| 2026-05-04 19:58 | 48.42730 | 9.34266 | 21975 ft | 370 kts | 344° |
| 2026-05-04 19:58 | 48.45242 | 9.33463 | 21492 ft | 368 kts | 345° |
| 2026-05-04 19:58 | 48.47743 | 9.32669 | 21019 ft | 366 kts | 345° |
| 2026-05-04 19:58 | 48.50234 | 9.31881 | 20546 ft | 365 kts | 345° |
| 2026-05-04 19:59 | 48.52718 | 9.31092 | 20055 ft | 364 kts | 345° |
| 2026-05-04 19:59 | 48.55193 | 9.30301 | 19583 ft | 363 kts | 345° |
| 2026-05-04 19:59 | 48.57698 | 9.29809 | 19108 ft | 366 kts | 0° |
| 2026-05-04 19:59 | 48.60158 | 9.30560 | 18635 ft | 369 kts | 21° |
| 2026-05-04 20:00 | 48.62326 | 9.32607 | 18123 ft | 369 kts | 43° |
| 2026-05-04 20:00 | 48.63871 | 9.35666 | 17623 ft | 367 kts | 64° |
| 2026-05-04 20:00 | 48.64763 | 9.39250 | 17172 ft | 363 kts | 73° |
| 2026-05-04 20:00 | 48.65551 | 9.42868 | 16711 ft | 362 kts | 73° |
| 2026-05-04 20:01 | 48.66328 | 9.46480 | 16245 ft | 361 kts | 73° |
| 2026-05-04 20:01 | 48.67097 | 9.50078 | 15789 ft | 359 kts | 73° |
| 2026-05-04 20:01 | 48.67868 | 9.53676 | 15331 ft | 359 kts | 73° |
| 2026-05-04 20:01 | 48.68639 | 9.57264 | 14879 ft | 358 kts | 73° |
| 2026-05-04 20:02 | 48.69381 | 9.60862 | 14407 ft | 357 kts | 75° |
| 2026-05-04 20:02 | 48.70066 | 9.64469 | 13979 ft | 356 kts | 76° |
| 2026-05-04 20:02 | 48.70720 | 9.68079 | 13492 ft | 355 kts | 77° |
| 2026-05-04 20:02 | 48.71361 | 9.71687 | 13038 ft | 353 kts | 77° |
| 2026-05-04 20:03 | 48.71996 | 9.75266 | 12603 ft | 351 kts | 77° |
| 2026-05-04 20:03 | 48.72632 | 9.78818 | 12162 ft | 348 kts | 77° |
| 2026-05-04 20:03 | 48.73274 | 9.82352 | 11701 ft | 347 kts | 76° |
| 2026-05-04 20:03 | 48.74013 | 9.85824 | 11241 ft | 347 kts | 65° |
| 2026-05-04 20:04 | 48.75525 | 9.88634 | 10770 ft | 346 kts | 36° |
| 2026-05-04 20:04 | 48.77702 | 9.90087 | 10241 ft | 343 kts | 7° |
| 2026-05-04 20:04 | 48.79985 | 9.89792 | 9995 ft | 319 kts | 335° |
| 2026-05-04 20:04 | 48.81758 | 9.87990 | 9626 ft | 304 kts | 305° |
| 2026-05-04 20:05 | 48.82610 | 9.85200 | 9330 ft | 286 kts | 275° |
| 2026-05-04 20:05 | 48.82548 | 9.82259 | 9028 ft | 275 kts | 255° |
| 2026-05-04 20:05 | 48.81881 | 9.79593 | 8709 ft | 268 kts | 237° |
| 2026-05-04 20:05 | 48.80706 | 9.77454 | 8377 ft | 262 kts | 225° |
| 2026-05-04 20:06 | 48.79443 | 9.75494 | 8050 ft | 258 kts | 230° |
| 2026-05-04 20:06 | 48.78529 | 9.73179 | 7723 ft | 256 kts | 247° |
| 2026-05-04 20:06 | 48.78013 | 9.70594 | 7322 ft | 255 kts | 253° |
| 2026-05-04 20:06 | 48.77547 | 9.68011 | 6981 ft | 253 kts | 253° |
| 2026-05-04 20:07 | 48.77090 | 9.65513 | 6659 ft | 242 kts | 252° |
| 2026-05-04 20:07 | 48.76643 | 9.63094 | 6369 ft | 229 kts | 252° |
| 2026-05-04 20:07 | 48.76224 | 9.60833 | 6070 ft | 217 kts | 253° |
| 2026-05-04 20:07 | 48.75825 | 9.58685 | 5773 ft | 208 kts | 253° |
| 2026-05-04 20:08 | 48.75445 | 9.56639 | 5512 ft | 200 kts | 253° |
| 2026-05-04 20:08 | 48.75071 | 9.54627 | 5251 ft | 196 kts | 253° |
| 2026-05-04 20:08 | 48.74710 | 9.52688 | 4996 ft | 187 kts | 254° |
| 2026-05-04 20:08 | 48.74365 | 9.50834 | 4767 ft | 178 kts | 254° |
| 2026-05-04 20:09 | 48.74039 | 9.49087 | 4530 ft | 167 kts | 253° |
| 2026-05-04 20:09 | 48.73727 | 9.47417 | 4296 ft | 164 kts | 253° |
| 2026-05-04 20:09 | 48.73416 | 9.45763 | 4067 ft | 162 kts | 253° |
| 2026-05-04 20:09 | 48.73089 | 9.44123 | 3834 ft | 163 kts | 252° |
| 2026-05-04 20:10 | 48.72868 | 9.43037 | 3689 ft | 163 kts | 252° |
| 2026-05-04 20:10 | 48.72558 | 9.41385 | 3529 ft | 164 kts | 254° |
| 2026-05-04 20:10 | 48.72250 | 9.39725 | 3278 ft | 164 kts | 253° |
| 2026-05-04 20:10 | 48.71930 | 9.38071 | 3004 ft | 164 kts | 253° |
| 2026-05-04 20:11 | 48.71628 | 9.36400 | 2751 ft | 164 kts | 253° |
| 2026-05-04 20:11 | 48.71356 | 9.34837 | 2625 ft | 144 kts | 253° |
| 2026-05-04 20:11 | 48.71096 | 9.33418 | 2358 ft | 137 kts | 252° |
| 2026-05-04 20:11 | 48.70832 | 9.32053 | 2136 ft | 135 kts | 252° |
| 2026-05-04 20:12 | 48.70573 | 9.30678 | 1937 ft | 136 kts | 252° |
| 2026-05-04 20:12 | 48.70314 | 9.29301 | 1831 ft | 137 kts | 253° |
| 2026-05-04 20:12 | 48.70057 | 9.27904 | 1697 ft | 139 kts | 255° |
| 2026-05-04 20:12 | 48.69797 | 9.26502 | 1461 ft | 138 kts | 254° |
| 2026-05-04 20:13 | 48.69533 | 9.25112 | 1312 ft | 138 kts | 255° |
| 2026-05-04 20:13 | 48.69279 | 9.23726 | 1205 ft | 132 kts | 255° |
| 2026-05-04 20:13 | 48.69062 | 9.22578 | 1226 ft | 96 kts | 254° |
| 2026-05-04 20:13 | 48.68901 | 9.21724 | 1258 ft | 74 kts | 254° |
| 2026-05-04 20:14 | 48.68774 | 9.21051 | 1268 ft | 58 kts | 254° |
| 2026-05-04 20:14 | 48.68684 | 9.20570 | 1272 ft | 38 kts | 253° |
| 2026-05-04 20:14 | 48.68691 | 9.20251 | 1280 ft | 25 kts | 283° |
| 2026-05-04 20:14 | 48.68719 | 9.20098 | 1287 ft | 7 kts | 287° |
| 2026-05-04 20:15 | 48.68729 | 9.20059 | 1289 ft | 1 kts | 296° |
| 2026-05-04 20:15 | 48.68750 | 9.20014 | 1291 ft | 15 kts | 310° |
| 2026-05-04 20:15 | 48.68824 | 9.19905 | 1298 ft | 13 kts | 326° |
| 2026-05-04 20:15 | 48.68885 | 9.19864 | 1303 ft | 6 kts | 315° |
| 2026-05-04 20:16 | 48.68889 | 9.19835 | 1304 ft | 1 kts | 271° |
| 2026-05-04 20:16 | 48.68880 | 9.19780 | 1305 ft | 11 kts | 250° |
| 2026-05-04 20:16 | 48.68864 | 9.19686 | 1308 ft | 7 kts | 256° |
| 2026-05-04 20:16 | 48.68854 | 9.19631 | 1309 ft | 4 kts | 253° |
| 2026-05-04 20:17 | 48.68842 | 9.19572 | 1310 ft | 12 kts | 253° |
| 2026-05-04 20:17 | 48.68826 | 9.19481 | 1312 ft | 6 kts | 261° |
| 2026-05-04 20:17 | 48.68839 | 9.19452 | 1313 ft | 1 kts | 320° |
| 2026-05-04 20:17 | 48.68852 | 9.19446 | 1314 ft | 8 kts | 349° |
| 2026-05-04 20:18 | 48.68897 | 9.19428 | 1315 ft | 0 kts | 344° |